createdAt,value
2019-03-10T00:00:33.986Z,60.17
2019-03-10T00:03:01.633Z,61.07
2019-03-10T00:05:29.265Z,60.35
2019-03-10T00:07:56.912Z,60.72
2019-03-10T00:10:24.557Z,61.13
2019-03-10T00:12:52.206Z,60.35
2019-03-10T00:15:19.946Z,60.63
2019-03-10T00:17:47.602Z,60.33
2019-03-10T00:20:15.244Z,61.76
2019-03-10T00:22:42.873Z,61.36
2019-03-10T00:25:10.516Z,61.15
2019-03-10T00:27:38.156Z,61.63
2019-03-10T00:30:05.807Z,61.68
2019-03-10T00:32:33.444Z,62.11
2019-03-10T00:35:01.092Z,61.65
2019-03-10T00:37:28.714Z,61.67
2019-03-10T00:39:56.364Z,61.39
2019-03-10T00:42:24.001Z,62.11
2019-03-10T00:44:51.640Z,61.88
2019-03-10T00:47:19.276Z,62.45
2019-03-10T00:49:46.931Z,63.04
2019-03-10T00:52:14.599Z,62.96
2019-03-10T00:54:42.227Z,62.30
2019-03-10T00:57:09.867Z,62.19
2019-03-10T00:59:37.504Z,62.85
2019-03-10T01:02:05.148Z,62.44
2019-03-10T01:04:32.892Z,62.06
2019-03-10T01:07:01.712Z,62.76
2019-03-10T01:09:29.666Z,62.44
2019-03-10T01:11:57.307Z,62.70
2019-03-10T01:14:24.971Z,63.35
2019-03-10T01:16:52.673Z,63.40
2019-03-10T01:19:20.307Z,63.68
2019-03-10T01:21:47.949Z,63.73
2019-03-10T01:24:15.575Z,63.09
2019-03-10T01:26:43.227Z,63.41
2019-03-10T01:29:10.870Z,64.43
2019-03-10T01:31:38.503Z,63.86
2019-03-10T01:34:06.140Z,63.95
2019-03-10T01:36:33.771Z,64.17
2019-03-10T01:39:01.410Z,64.55
2019-03-10T01:41:29.042Z,63.48
2019-03-10T01:43:56.676Z,64.80
2019-03-10T01:46:24.416Z,64.08
2019-03-10T01:48:52.079Z,63.65
2019-03-10T01:51:19.727Z,64.76
2019-03-10T01:53:47.357Z,64.02
2019-03-10T01:56:15.004Z,63.80
2019-03-10T01:58:42.636Z,63.44
2019-03-10T02:01:10.278Z,64.20
2019-03-10T02:03:37.937Z,64.65
2019-03-10T02:06:05.591Z,63.97
2019-03-10T02:08:33.231Z,63.62
2019-03-10T02:11:00.870Z,64.30
2019-03-10T02:13:28.508Z,64.22
2019-03-10T02:15:56.149Z,64.29
2019-03-10T02:18:23.811Z,63.73
2019-03-10T02:20:51.470Z,63.81
2019-03-10T02:23:19.126Z,64.02
2019-03-10T02:25:46.767Z,63.03
2019-03-10T02:28:14.403Z,63.82
2019-03-10T02:30:42.054Z,63.34
2019-03-10T02:33:09.688Z,64.08
2019-03-10T02:35:37.375Z,63.87
2019-03-10T02:38:05.086Z,64.21
2019-03-10T02:40:32.783Z,65.37
2019-03-10T02:43:00.410Z,64.33
2019-03-10T02:45:28.040Z,63.69
2019-03-10T02:47:55.688Z,64.45
2019-03-10T02:50:23.319Z,63.99
2019-03-10T02:52:51.015Z,64.64
2019-03-10T02:55:18.725Z,64.29
2019-03-10T02:57:46.372Z,64.47
2019-03-10T03:02:44.813Z,63.67
2019-03-10T03:05:12.580Z,65.09
2019-03-10T03:07:40.296Z,64.15
2019-03-10T03:10:08.199Z,65.06
2019-03-10T03:12:35.841Z,64.17
2019-03-10T03:15:03.473Z,64.59
2019-03-10T03:17:31.126Z,65.28
2019-03-10T03:19:58.760Z,65.45
2019-03-10T03:22:26.404Z,64.99
2019-03-10T03:24:54.050Z,65.07
2019-03-10T03:27:21.693Z,64.69
2019-03-10T03:29:49.336Z,64.76
2019-03-10T03:32:16.992Z,64.56
2019-03-10T03:34:44.635Z,64.28
2019-03-10T03:37:12.295Z,64.40
2019-03-10T03:39:39.961Z,64.08
2019-03-10T03:42:07.665Z,63.81
2019-03-10T03:44:35.287Z,63.27
2019-03-10T03:47:02.929Z,63.59
2019-03-10T03:49:30.567Z,63.57
2019-03-10T03:51:58.212Z,63.15
2019-03-10T03:54:25.938Z,63.93
2019-03-10T03:56:53.593Z,64.07
2019-03-10T03:59:21.227Z,63.79
2019-03-10T04:01:52.652Z,64.12
2019-03-10T04:04:20.284Z,63.64
2019-03-10T04:06:47.923Z,64.36
2019-03-10T04:09:15.560Z,63.65
2019-03-10T04:11:43.210Z,64.35
2019-03-10T04:14:10.827Z,64.86
2019-03-10T04:16:38.455Z,64.39
2019-03-10T04:19:06.115Z,64.97
2019-03-10T04:21:33.824Z,64.73
2019-03-10T04:24:01.485Z,64.66
2019-03-10T04:26:29.761Z,65.02
2019-03-10T04:28:57.400Z,65.36
2019-03-10T04:31:25.032Z,65.15
2019-03-10T04:33:52.674Z,65.06
2019-03-10T04:36:20.309Z,65.38
2019-03-10T04:38:47.943Z,65.86
2019-03-10T04:41:15.577Z,65.57
2019-03-10T04:43:43.219Z,65.42
2019-03-10T04:46:10.844Z,65.01
2019-03-10T04:51:04.402Z,65.94
2019-03-10T04:56:07.903Z,65.55
2019-03-10T04:58:38.586Z,65.78
2019-03-10T05:03:33.002Z,64.30
2019-03-10T05:06:00.642Z,64.37
2019-03-10T05:08:28.284Z,64.02
2019-03-10T05:10:55.919Z,64.10
2019-03-10T05:13:23.561Z,64.24
2019-03-10T05:15:51.199Z,63.36
2019-03-10T05:18:18.846Z,63.69
2019-03-10T05:20:46.482Z,63.49
2019-03-10T05:23:14.137Z,64.13
2019-03-10T05:25:41.774Z,63.50
2019-03-10T05:28:09.407Z,63.01
2019-03-10T05:30:37.066Z,63.43
2019-03-10T05:33:04.701Z,63.45
2019-03-10T05:35:32.403Z,63.07
2019-03-10T05:38:00.043Z,63.13
2019-03-10T05:40:27.704Z,63.80
2019-03-10T05:42:55.343Z,63.47
2019-03-10T05:45:22.977Z,63.43
2019-03-10T05:47:50.610Z,63.26
2019-03-10T05:50:18.254Z,63.68
2019-03-10T05:52:45.917Z,64.24
2019-03-10T05:55:13.572Z,63.39
2019-03-10T05:57:41.193Z,63.74
2019-03-10T06:00:08.827Z,62.54
2019-03-10T06:02:36.466Z,63.10
2019-03-10T06:05:05.922Z,62.18
2019-03-10T06:07:33.455Z,62.98
2019-03-10T06:10:01.091Z,62.64
2019-03-10T06:12:28.723Z,62.29
2019-03-10T06:14:56.374Z,61.95
2019-03-10T06:17:24.028Z,61.37
2019-03-10T06:19:51.670Z,62.38
2019-03-10T06:22:19.326Z,62.43
2019-03-10T06:24:46.985Z,62.76
2019-03-10T06:27:14.630Z,61.92
2019-03-10T06:29:47.275Z,61.58
2019-03-10T06:32:14.949Z,62.09
2019-03-10T06:34:42.585Z,62.15
2019-03-10T06:37:10.214Z,62.55
2019-03-10T06:39:37.856Z,62.61
2019-03-10T06:42:05.486Z,63.02
2019-03-10T06:44:33.129Z,62.37
2019-03-10T06:47:00.774Z,62.80
2019-03-10T06:49:28.410Z,62.34
2019-03-10T06:51:56.057Z,62.87
2019-03-10T06:54:23.700Z,62.75
2019-03-10T06:56:51.392Z,62.84
2019-03-10T06:59:19.089Z,63.85
2019-03-10T07:01:46.759Z,63.45
2019-03-10T07:04:14.391Z,63.07
2019-03-10T07:06:47.055Z,63.46
2019-03-10T07:09:14.711Z,63.12
2019-03-10T07:11:42.334Z,63.55
2019-03-10T07:14:09.984Z,63.62
2019-03-10T07:16:37.611Z,64.05
2019-03-10T07:19:05.249Z,64.87
2019-03-10T07:21:32.898Z,64.99
2019-03-10T07:24:00.552Z,65.54
2019-03-10T07:26:28.191Z,65.93
2019-03-10T07:29:02.139Z,65.49
2019-03-10T07:31:44.685Z,65.21
2019-03-10T07:34:36.443Z,66.17
2019-03-10T07:37:23.919Z,65.98
2019-03-10T07:39:56.794Z,66.26
2019-03-10T07:42:30.944Z,66.86
2019-03-10T07:45:04.336Z,67.72
2019-03-10T07:47:37.250Z,66.94
2019-03-10T07:50:12.254Z,67.39
2019-03-10T07:52:50.774Z,67.66
2019-03-10T07:55:25.820Z,67.53
2019-03-10T07:58:06.636Z,67.37
2019-03-10T08:00:41.724Z,67.30
2019-03-10T08:03:16.850Z,66.96
2019-03-10T08:06:05.439Z,67.35
2019-03-10T08:08:42.994Z,66.88
2019-03-10T08:11:18.033Z,67.38
2019-03-10T08:13:54.100Z,67.98
2019-03-10T08:16:27.025Z,68.33
2019-03-10T08:19:05.907Z,68.65
2019-03-10T08:21:38.863Z,69.05
2019-03-10T08:24:13.315Z,69.48
2019-03-10T08:26:51.016Z,70.69
2019-03-10T08:29:30.462Z,71.25
2019-03-10T08:32:03.458Z,71.04
2019-03-10T08:34:39.092Z,72.53
2019-03-10T08:37:15.039Z,72.70
2019-03-10T08:39:56.942Z,72.43
2019-03-10T08:42:31.897Z,73.85
2019-03-10T08:45:06.808Z,75.01
2019-03-10T08:47:54.317Z,75.30
2019-03-10T08:50:29.586Z,75.67
2019-03-10T08:53:04.556Z,74.75
2019-03-10T08:55:43.740Z,75.89
2019-03-10T08:58:17.851Z,76.40
2019-03-10T09:01:05.418Z,76.48
2019-03-10T09:03:49.578Z,77.24
2019-03-10T09:06:27.860Z,76.27
2019-03-10T09:09:06.870Z,77.29
2019-03-10T09:11:53.541Z,77.87
2019-03-10T09:14:28.643Z,77.97
2019-03-10T09:17:03.668Z,78.89
2019-03-10T09:19:51.284Z,78.30
2019-03-10T09:22:29.018Z,76.78
2019-03-10T09:25:15.707Z,76.68
2019-03-10T09:27:58.362Z,78.20
2019-03-10T09:30:33.455Z,78.43
2019-03-10T09:33:11.456Z,78.71
2019-03-10T09:35:47.627Z,79.50
2019-03-10T09:38:22.033Z,79.62
2019-03-10T09:40:58.499Z,78.86
2019-03-10T09:43:33.742Z,78.94
2019-03-10T09:46:11.760Z,79.37
2019-03-10T09:48:47.407Z,79.38
2019-03-10T09:51:25.309Z,78.26
2019-03-10T09:54:02.586Z,78.05
2019-03-10T09:56:45.071Z,78.23
2019-03-10T09:59:19.621Z,78.84
2019-03-10T10:01:52.535Z,78.07
2019-03-10T10:04:25.443Z,78.35
2019-03-10T10:07:01.756Z,79.77
2019-03-10T10:09:48.439Z,79.18
2019-03-10T10:12:27.810Z,78.90
2019-03-10T10:15:02.440Z,80.46
2019-03-10T10:17:41.058Z,80.30
2019-03-10T10:20:21.217Z,79.67
2019-03-10T10:23:03.698Z,78.83
2019-03-10T10:25:41.691Z,80.01
2019-03-10T10:28:16.745Z,80.29
2019-03-10T10:30:50.976Z,80.14
2019-03-10T10:33:23.816Z,80.03
2019-03-10T10:36:01.457Z,80.26
2019-03-10T10:38:37.575Z,78.76
2019-03-10T10:41:14.279Z,78.58
2019-03-10T10:44:00.905Z,79.47
2019-03-10T10:46:33.731Z,80.89
2019-03-10T10:49:09.750Z,78.92
2019-03-10T10:51:46.005Z,79.42
2019-03-10T10:54:24.346Z,79.29
2019-03-10T10:57:00.893Z,79.12
2019-03-10T10:59:35.828Z,80.92
2019-03-10T11:02:10.755Z,80.65
2019-03-10T11:05:00.399Z,80.53
2019-03-10T11:07:38.527Z,79.71
2019-03-10T11:10:19.815Z,80.12
2019-03-10T11:12:52.635Z,80.33
2019-03-10T11:15:28.552Z,81.55
2019-03-10T11:18:09.351Z,79.95
2019-03-10T11:20:38.734Z,79.81
2019-03-10T11:23:26.318Z,80.79
2019-03-10T11:26:02.444Z,80.60
2019-03-10T11:28:35.464Z,80.92
2019-03-10T11:31:13.995Z,81.22
2019-03-10T11:33:59.351Z,81.05
2019-03-10T11:36:34.851Z,79.23
2019-03-10T11:39:07.816Z,79.13
2019-03-10T11:41:42.188Z,78.35
2019-03-10T11:44:21.695Z,79.69
2019-03-10T11:47:06.275Z,79.22
2019-03-10T11:49:52.951Z,80.78
2019-03-10T11:52:33.390Z,80.68
2019-03-10T11:55:08.630Z,80.85
2019-03-10T11:57:41.553Z,82.18
2019-03-10T12:00:18.227Z,81.95
2019-03-10T12:02:58.183Z,81.88
2019-03-10T12:05:37.323Z,81.69
2019-03-10T12:08:16.955Z,82.09
2019-03-10T12:10:44.633Z,81.79
2019-03-10T12:13:12.331Z,81.53
2019-03-10T12:15:39.956Z,81.38
2019-03-10T12:18:07.600Z,81.00
2019-03-10T12:20:35.231Z,81.16
2019-03-10T12:23:02.882Z,82.51
2019-03-10T12:25:30.507Z,81.02
2019-03-10T12:27:58.154Z,80.48
2019-03-10T12:30:25.793Z,81.10
2019-03-10T12:32:53.447Z,80.33
2019-03-10T12:35:21.096Z,80.84
2019-03-10T12:37:48.731Z,80.81
2019-03-10T12:40:16.376Z,81.59
2019-03-10T12:42:44.015Z,80.59
2019-03-10T12:45:11.645Z,81.05
2019-03-10T12:47:39.295Z,80.41
2019-03-10T12:50:06.923Z,80.13
2019-03-10T12:52:34.568Z,80.43
2019-03-10T12:55:02.204Z,81.04
2019-03-10T12:57:29.846Z,81.26
2019-03-10T12:59:57.478Z,81.33
2019-03-10T13:02:26.146Z,82.22
2019-03-10T13:04:53.785Z,81.22
2019-03-10T13:07:21.422Z,79.84
2019-03-10T13:09:49.075Z,80.79
2019-03-10T13:12:16.710Z,80.57
2019-03-10T13:14:44.339Z,80.27
2019-03-10T13:17:11.975Z,79.79
2019-03-10T13:19:39.620Z,80.32
2019-03-10T13:22:07.263Z,81.24
2019-03-10T13:24:34.913Z,78.45
2019-03-10T13:27:02.545Z,80.58
2019-03-10T13:29:30.174Z,81.78
2019-03-10T13:31:57.811Z,80.77
2019-03-10T13:34:25.453Z,82.22
2019-03-10T13:36:53.107Z,80.68
2019-03-10T13:39:20.750Z,80.07
2019-03-10T13:41:48.387Z,79.80
2019-03-10T13:44:16.040Z,80.47
2019-03-10T13:46:44.015Z,80.63
2019-03-10T13:49:11.782Z,79.01
2019-03-10T13:51:39.433Z,77.72
2019-03-10T13:54:07.070Z,76.94
2019-03-10T13:56:34.718Z,78.48
2019-03-10T13:59:02.393Z,77.33
2019-03-10T14:01:30.042Z,77.98
2019-03-10T14:04:00.062Z,77.14
2019-03-10T14:06:27.049Z,76.01
2019-03-10T14:08:54.706Z,77.15
2019-03-10T14:11:22.340Z,76.57
2019-03-10T14:13:49.978Z,77.14
2019-03-10T14:16:17.611Z,77.12
2019-03-10T14:18:45.245Z,77.81
2019-03-10T14:21:12.875Z,78.17
2019-03-10T14:23:40.532Z,78.00
2019-03-10T14:26:08.158Z,77.40
2019-03-10T14:28:35.801Z,77.98
2019-03-10T14:31:03.442Z,78.09
2019-03-10T14:33:31.108Z,78.33
2019-03-10T14:35:58.833Z,77.89
2019-03-10T14:38:26.588Z,77.60
2019-03-10T14:40:54.278Z,79.01
2019-03-10T14:43:21.917Z,79.49
2019-03-10T14:45:49.558Z,80.53
2019-03-10T14:48:17.214Z,79.53
2019-03-10T14:50:45.976Z,79.85
2019-03-10T14:53:13.854Z,80.89
2019-03-10T14:55:41.499Z,82.81
2019-03-10T14:58:09.124Z,79.96
2019-03-10T15:00:36.769Z,79.39
2019-03-10T15:03:04.412Z,80.55
2019-03-10T15:05:32.106Z,82.41
2019-03-10T15:07:59.774Z,82.11
2019-03-10T15:10:27.406Z,81.39
2019-03-10T15:12:55.028Z,80.89
2019-03-10T15:15:23.421Z,79.57
2019-03-10T15:17:51.187Z,80.00
2019-03-10T15:20:21.302Z,80.96
2019-03-10T15:22:48.189Z,82.03
2019-03-10T15:25:15.825Z,80.73
2019-03-10T15:27:43.464Z,82.33
2019-03-10T15:30:11.105Z,83.13
2019-03-10T15:32:38.763Z,83.83
2019-03-10T15:35:06.391Z,84.38
2019-03-10T15:37:34.027Z,84.21
2019-03-10T15:40:01.736Z,85.46
2019-03-10T15:42:29.370Z,85.32
2019-03-10T15:44:57.010Z,84.63
2019-03-10T15:47:24.647Z,84.43
2019-03-10T15:49:52.314Z,84.90
2019-03-10T15:52:19.970Z,83.57
2019-03-10T15:54:47.631Z,82.82
2019-03-10T15:57:15.265Z,81.41
2019-03-10T15:59:42.910Z,82.01
2019-03-10T16:02:10.542Z,80.82
2019-03-10T16:04:38.191Z,81.04
2019-03-10T16:07:05.826Z,81.82
2019-03-10T16:09:33.472Z,81.86
2019-03-10T16:12:01.111Z,82.55
2019-03-10T16:14:28.751Z,83.16
2019-03-10T16:16:56.388Z,83.72
2019-03-10T16:19:24.018Z,81.88
2019-03-10T16:21:51.663Z,81.87
2019-03-10T16:24:19.318Z,82.83
2019-03-10T16:26:47.038Z,83.33
2019-03-10T16:29:14.678Z,83.29
2019-03-10T16:31:42.310Z,83.12
2019-03-10T16:34:09.947Z,83.71
2019-03-10T16:36:37.600Z,83.90
2019-03-10T16:39:05.308Z,84.11
2019-03-10T16:41:32.962Z,83.74
2019-03-10T16:44:00.674Z,84.36
2019-03-10T16:46:28.330Z,84.32
2019-03-10T16:48:55.968Z,83.34
2019-03-10T16:51:49.558Z,83.86
2019-03-10T16:54:17.320Z,84.50
2019-03-10T16:56:44.955Z,85.79
2019-03-10T16:59:12.616Z,86.52
2019-03-10T17:01:40.260Z,87.14
2019-03-10T17:04:07.915Z,87.77
2019-03-10T17:06:35.618Z,87.88
2019-03-10T17:09:04.833Z,87.83
2019-03-10T17:11:32.610Z,88.60
2019-03-10T17:14:00.261Z,88.27
2019-03-10T17:16:27.920Z,86.49
2019-03-10T17:18:55.567Z,84.27
2019-03-10T17:21:23.351Z,82.43
2019-03-10T17:23:51.052Z,79.79
2019-03-10T17:26:18.695Z,77.50
2019-03-10T17:28:46.350Z,76.36
2019-03-10T17:31:14.066Z,74.10
2019-03-10T17:33:41.698Z,76.40
2019-03-10T17:36:09.345Z,72.79
2019-03-10T17:38:37.024Z,75.43
2019-03-10T17:41:04.667Z,75.43
2019-03-10T17:43:32.298Z,73.48
2019-03-10T17:45:59.942Z,71.33
2019-03-10T17:48:27.583Z,74.30
2019-03-10T17:50:55.227Z,74.86
2019-03-10T17:53:22.869Z,74.55
2019-03-10T17:55:50.662Z,75.33
2019-03-10T17:58:18.314Z,72.76
2019-03-10T18:00:45.959Z,73.79
2019-03-10T18:03:13.596Z,72.40
2019-03-10T18:05:41.250Z,68.35
2019-03-10T18:08:08.915Z,66.77
2019-03-10T18:10:36.547Z,66.34
2019-03-10T18:13:04.178Z,67.61
2019-03-10T18:15:32.206Z,66.09
2019-03-10T18:17:59.855Z,66.23
2019-03-10T18:20:27.494Z,63.90
2019-03-10T18:22:55.130Z,64.36
2019-03-10T18:25:22.785Z,64.37
2019-03-10T18:27:50.420Z,63.73
2019-03-10T18:30:18.166Z,61.74
2019-03-10T18:32:45.852Z,60.23
2019-03-10T18:35:13.501Z,56.88
2019-03-10T18:37:41.144Z,54.70
2019-03-10T18:40:08.904Z,54.79
2019-03-10T18:42:36.554Z,54.30
2019-03-10T18:45:04.244Z,53.53
2019-03-10T18:47:31.876Z,51.71
2019-03-10T18:49:59.522Z,52.20
2019-03-10T18:52:27.162Z,50.56
2019-03-10T18:54:54.803Z,50.96
2019-03-10T18:57:22.456Z,50.94
2019-03-10T18:59:50.097Z,50.10
2019-03-10T19:02:17.738Z,51.73
2019-03-10T19:04:45.400Z,49.52
2019-03-10T19:07:13.051Z,49.54
2019-03-10T19:09:40.691Z,49.73
2019-03-10T19:12:08.338Z,48.84
2019-03-10T19:14:35.970Z,50.49
2019-03-10T19:17:03.630Z,50.21
2019-03-10T19:19:32.117Z,50.97
2019-03-10T19:21:59.911Z,50.41
2019-03-10T19:24:27.605Z,49.77
2019-03-10T19:26:55.254Z,51.17
2019-03-10T19:29:23.017Z,49.72
2019-03-10T19:31:50.663Z,50.78
2019-03-10T19:34:18.306Z,50.93
2019-03-10T19:36:56.098Z,50.32
2019-03-10T19:39:15.307Z,51.08
2019-03-10T19:41:42.952Z,50.76
2019-03-10T19:44:10.597Z,50.47
2019-03-10T19:46:38.256Z,49.28
2019-03-10T19:49:05.885Z,48.72
2019-03-10T19:51:33.531Z,49.38
2019-03-10T19:54:01.178Z,48.34
2019-03-10T19:56:28.831Z,49.40
2019-03-10T19:58:56.519Z,50.90
2019-03-10T20:01:24.158Z,49.39
2019-03-10T20:03:51.815Z,51.31
2019-03-10T20:06:19.449Z,51.31
2019-03-10T20:08:47.072Z,49.81
2019-03-10T20:11:14.709Z,49.17
2019-03-10T20:13:42.402Z,50.58
2019-03-10T20:16:10.080Z,49.17
2019-03-10T20:18:37.795Z,49.45
2019-03-10T20:21:05.442Z,48.94
2019-03-10T20:23:33.101Z,49.58
2019-03-10T20:26:00.740Z,50.34
2019-03-10T20:28:28.390Z,48.95
2019-03-10T20:30:56.059Z,48.94
2019-03-10T20:33:23.695Z,47.28
2019-03-10T20:35:51.355Z,49.49
2019-03-10T20:38:18.991Z,49.24
2019-03-10T20:40:46.623Z,48.84
2019-03-10T20:43:14.258Z,49.58
2019-03-10T20:45:41.913Z,48.45
2019-03-10T20:48:09.634Z,49.48
2019-03-10T20:50:37.274Z,48.18
2019-03-10T20:53:04.919Z,49.01
2019-03-10T20:55:32.644Z,51.44
2019-03-10T20:58:00.279Z,53.78
2019-03-10T21:00:27.937Z,56.38
2019-03-10T21:02:55.587Z,59.10
2019-03-10T21:05:23.235Z,61.47
2019-03-10T21:07:50.872Z,62.77
2019-03-10T21:10:18.506Z,65.12
2019-03-10T21:12:46.266Z,66.05
2019-03-10T21:15:13.874Z,67.95
2019-03-10T21:17:41.512Z,69.07
2019-03-10T21:20:09.153Z,69.55
2019-03-10T21:22:36.797Z,69.82
2019-03-10T21:25:04.432Z,70.73
2019-03-10T21:27:32.080Z,70.82
2019-03-10T21:29:59.720Z,71.43
2019-03-10T21:32:27.363Z,72.35
2019-03-10T21:34:55.029Z,73.14
2019-03-10T21:37:22.674Z,73.08
2019-03-10T21:39:50.311Z,73.63
2019-03-10T21:42:17.976Z,73.69
2019-03-10T21:44:45.619Z,73.46
2019-03-10T22:01:48.722Z,75.85
2019-03-10T22:04:16.356Z,76.48
2019-03-10T22:06:44.011Z,76.37
2019-03-10T22:09:11.653Z,76.71
2019-03-10T22:11:39.330Z,76.60
2019-03-10T22:14:06.975Z,77.09
2019-03-10T22:16:34.607Z,77.86
2019-03-10T22:19:02.258Z,78.55
2019-03-10T22:21:29.915Z,80.01
2019-03-10T22:23:59.604Z,81.29
2019-03-10T22:26:27.094Z,81.87
2019-03-10T22:28:54.816Z,83.12
2019-03-10T22:31:22.578Z,83.38
2019-03-10T22:33:50.224Z,83.37
2019-03-10T22:36:17.946Z,84.48
2019-03-10T22:38:45.600Z,84.05
2019-03-10T22:41:13.220Z,84.55
2019-03-10T22:43:40.887Z,84.35
2019-03-10T22:46:08.509Z,83.71
2019-03-10T22:48:36.154Z,83.94
2019-03-10T22:51:03.798Z,83.91
2019-03-10T22:53:31.444Z,83.39
2019-03-10T22:55:59.087Z,83.78
2019-03-10T22:58:26.750Z,82.89
2019-03-10T23:00:55.145Z,81.77
2019-03-10T23:03:22.786Z,81.73
2019-03-10T23:05:50.436Z,82.47
2019-03-10T23:08:18.133Z,82.17
2019-03-10T23:10:45.769Z,82.82
2019-03-10T23:13:13.494Z,82.26
2019-03-10T23:15:41.135Z,81.44
2019-03-10T23:18:08.775Z,81.87
2019-03-10T23:20:36.430Z,81.54
2019-03-10T23:23:04.081Z,81.78
2019-03-10T23:25:31.723Z,82.04
2019-03-10T23:27:59.515Z,82.00
2019-03-10T23:30:27.166Z,82.89
2019-03-10T23:32:54.811Z,82.52
2019-03-10T23:35:22.451Z,81.83
2019-03-10T23:37:50.088Z,81.02
2019-03-10T23:40:17.722Z,81.14
2019-03-10T23:42:45.455Z,80.85
2019-03-10T23:45:13.088Z,80.70
2019-03-10T23:47:40.741Z,80.65
2019-03-10T23:50:08.410Z,80.15
2019-03-10T23:52:36.047Z,79.95
2019-03-10T23:55:03.798Z,79.87
2019-03-10T23:57:31.432Z,80.23
2019-03-10T23:59:59.175Z,80.13
